createdAt,value
2019-02-18T00:01:18.037Z,63.40
2019-02-18T00:03:47.965Z,60.50
2019-02-18T00:06:17.387Z,62.90
2019-02-18T00:08:50.447Z,60.10
2019-02-18T00:11:22.455Z,58.50
2019-02-18T00:13:52.545Z,57.50
2019-02-18T00:16:22.036Z,58.40
2019-02-18T00:18:54.158Z,58.20
2019-02-18T00:21:23.928Z,58.90
2019-02-18T00:23:55.308Z,57.80
2019-02-18T00:26:25.029Z,59.20
2019-02-18T00:28:55.655Z,60.40
2019-02-18T00:31:25.317Z,60.80
2019-02-18T00:33:57.427Z,62.70
2019-02-18T00:36:27.177Z,55.70
2019-02-18T00:38:56.699Z,57.30
2019-02-18T00:41:26.366Z,57.30
2019-02-18T00:43:55.726Z,59.60
2019-02-18T00:46:26.289Z,58.90
2019-02-18T00:48:57.180Z,58.30
2019-02-18T00:51:26.690Z,57.90
2019-02-18T00:53:56.582Z,59.40
2019-02-18T00:56:27.717Z,59.20
2019-02-18T00:58:57.395Z,59.30
2019-02-18T01:01:26.870Z,62.70
2019-02-18T01:03:56.199Z,60.50
2019-02-18T01:06:25.433Z,60.40
2019-02-18T01:08:54.504Z,58.10
2019-02-18T01:11:25.018Z,59.50
2019-02-18T01:13:55.186Z,59.90
2019-02-18T01:16:24.632Z,66.80
2019-02-18T01:18:57.661Z,59.40
2019-02-18T01:21:27.126Z,60.00
2019-02-18T01:23:56.529Z,58.70
2019-02-18T01:26:25.907Z,58.90
2019-02-18T01:28:55.226Z,60.70
2019-02-18T01:31:27.399Z,60.80
2019-02-18T01:33:56.797Z,61.30
2019-02-18T01:36:26.333Z,62.60
2019-02-18T01:39:10.583Z,57.80
2019-02-18T01:41:39.684Z,59.10
2019-02-18T01:44:09.380Z,60.90
2019-02-18T01:46:39.202Z,61.20
2019-02-18T01:49:09.713Z,58.80
2019-02-18T01:51:39.316Z,58.70
2019-02-18T01:54:10.979Z,58.70
2019-02-18T01:56:40.487Z,56.90
2019-02-18T01:59:10.225Z,61.60
2019-02-18T02:01:42.032Z,56.70
2019-02-18T02:04:11.681Z,56.70
2019-02-18T02:06:41.232Z,60.40
2019-02-18T02:09:13.163Z,64.40
2019-02-18T02:11:42.507Z,57.70
2019-02-18T02:14:12.727Z,60.00
2019-02-18T02:16:44.317Z,62.70
2019-02-18T02:19:15.246Z,57.40
2019-02-18T02:21:45.983Z,58.30
2019-02-18T02:24:16.081Z,60.00
2019-02-18T02:26:46.809Z,59.60
2019-02-18T02:29:18.078Z,58.40
2019-02-18T02:31:47.124Z,58.50
2019-02-18T02:34:16.506Z,60.70
2019-02-18T02:36:45.841Z,60.80
2019-02-18T02:39:15.410Z,59.10
2019-02-18T02:41:48.251Z,63.00
2019-02-18T02:44:18.110Z,60.20
2019-02-18T02:46:47.826Z,61.20
2019-02-18T02:49:17.523Z,64.00
2019-02-18T02:51:46.985Z,65.60
2019-02-18T02:54:16.719Z,66.10
2019-02-18T02:56:45.776Z,63.30
2019-02-18T02:59:15.325Z,66.00
2019-02-18T03:01:44.462Z,66.90
2019-02-18T03:04:14.065Z,68.80
2019-02-18T03:06:43.451Z,67.20
2019-02-18T03:09:13.443Z,66.50
2019-02-18T03:11:42.809Z,68.50
2019-02-18T03:14:14.641Z,65.90
2019-02-18T03:16:44.009Z,65.60
2019-02-18T03:19:13.672Z,65.60
2019-02-18T03:21:45.455Z,63.50
2019-02-18T03:24:17.327Z,62.50
2019-02-18T03:26:47.289Z,68.70
2019-02-18T03:29:53.865Z,65.80
2019-02-18T03:32:23.452Z,65.60
2019-02-18T03:34:53.750Z,66.10
2019-02-18T03:37:23.867Z,63.60
2019-02-18T03:39:53.177Z,65.40
2019-02-18T03:42:23.408Z,64.50
2019-02-18T03:44:53.221Z,64.90
2019-02-18T03:47:24.800Z,65.20
2019-02-18T03:49:54.792Z,64.70
2019-02-18T03:52:24.784Z,64.90
2019-02-18T03:54:54.252Z,65.50
2019-02-18T03:57:25.780Z,65.60
2019-02-18T03:59:55.770Z,64.20
2019-02-18T04:02:27.022Z,65.50
2019-02-18T04:04:57.325Z,66.70
2019-02-18T04:07:27.358Z,66.00
2019-02-18T04:09:56.465Z,65.40
2019-02-18T04:12:26.382Z,68.30
2019-02-18T04:14:56.597Z,66.40
2019-02-18T04:17:26.640Z,65.10
2019-02-18T04:19:56.542Z,65.60
2019-02-18T04:22:26.182Z,65.70
2019-02-18T04:24:56.350Z,64.70
2019-02-18T04:27:26.993Z,68.80
2019-02-18T04:29:56.180Z,68.40
2019-02-18T04:32:27.186Z,66.10
2019-02-18T04:34:56.757Z,67.90
2019-02-18T04:37:25.840Z,69.00
2019-02-18T04:39:55.377Z,69.00
2019-02-18T04:42:25.302Z,65.40
2019-02-18T04:44:55.301Z,66.00
2019-02-18T04:47:25.013Z,67.30
2019-02-18T04:49:54.631Z,68.00
2019-02-18T04:52:24.141Z,70.60
2019-02-18T04:54:55.787Z,67.50
2019-02-18T04:57:25.207Z,66.60
2019-02-18T04:59:55.137Z,66.00
2019-02-18T05:02:25.714Z,66.20
2019-02-18T05:04:55.135Z,66.30
2019-02-18T05:07:26.849Z,68.70
2019-02-18T05:09:57.181Z,68.40
2019-02-18T05:12:26.437Z,67.30
2019-02-18T05:14:55.605Z,69.20
2019-02-18T05:17:25.157Z,68.30
2019-02-18T05:19:54.818Z,67.60
2019-02-18T05:22:25.862Z,65.00
2019-02-18T05:24:55.601Z,64.60
2019-02-18T05:27:33.206Z,71.30
2019-02-18T05:30:00.876Z,67.20
2019-02-18T05:32:30.853Z,67.10
2019-02-18T05:35:00.504Z,66.70
2019-02-18T05:37:31.589Z,68.90
2019-02-18T05:40:00.850Z,67.60
2019-02-18T05:42:31.423Z,67.80
2019-02-18T05:45:01.152Z,65.40
2019-02-18T05:47:34.111Z,68.20
2019-02-18T05:50:03.562Z,67.80
2019-02-18T05:52:33.363Z,66.00
2019-02-18T05:55:02.683Z,66.20
2019-02-18T05:57:32.349Z,68.70
2019-02-18T06:00:06.049Z,68.10
2019-02-18T06:02:37.585Z,67.50
2019-02-18T06:05:07.811Z,72.10
2019-02-18T06:07:38.791Z,66.90
2019-02-18T06:10:10.771Z,67.00
2019-02-18T06:12:44.863Z,68.90
2019-02-18T06:15:15.384Z,68.90
2019-02-18T06:17:45.134Z,66.70
2019-02-18T06:20:17.844Z,68.80
2019-02-18T06:22:47.742Z,68.70
2019-02-18T06:25:17.492Z,68.30
2019-02-18T06:27:48.663Z,67.00
2019-02-18T06:30:20.599Z,68.50
2019-02-18T06:32:50.160Z,68.00
2019-02-18T06:35:20.028Z,69.60
2019-02-18T06:37:49.851Z,68.20
2019-02-18T06:40:19.363Z,68.70
2019-02-18T06:42:49.243Z,73.30
2019-02-18T06:45:40.317Z,70.90
2019-02-18T06:48:24.221Z,68.30
2019-02-18T06:50:55.695Z,69.20
2019-02-18T06:53:27.994Z,68.70
2019-02-18T06:55:58.683Z,71.00
2019-02-18T06:58:38.619Z,70.50
2019-02-18T07:01:27.174Z,71.30
2019-02-18T07:04:10.300Z,74.20
2019-02-18T07:06:55.174Z,69.30
2019-02-18T07:09:51.737Z,69.60
2019-02-18T07:12:28.868Z,69.60
2019-02-18T07:14:58.963Z,72.00
2019-02-18T07:17:29.342Z,70.00
2019-02-18T07:20:00.031Z,69.90
2019-02-18T07:23:24.854Z,60.80
2019-02-18T07:29:45.939Z,60.60
2019-02-18T07:32:12.809Z,64.60
2019-02-18T07:34:45.294Z,62.20
2019-02-18T07:37:14.741Z,63.60
2019-02-18T07:39:46.237Z,64.70
2019-02-18T07:42:15.959Z,61.80
2019-02-18T07:44:45.855Z,61.80
2019-02-18T07:47:15.654Z,60.00
2019-02-18T07:49:47.413Z,58.60
2019-02-18T07:52:17.206Z,58.30
2019-02-18T07:54:46.915Z,61.10
2019-02-18T07:57:16.830Z,58.00
2019-02-18T08:00:10.406Z,62.20
2019-02-18T08:02:40.418Z,60.70
2019-02-18T08:05:12.159Z,62.10
2019-02-18T08:07:42.102Z,60.50
2019-02-18T08:10:12.587Z,55.40
2019-02-18T08:12:46.671Z,57.80
2019-02-18T08:15:15.770Z,55.10
2019-02-18T08:17:45.601Z,56.40
2019-02-18T08:20:15.093Z,55.20
2019-02-18T08:22:45.612Z,52.10
2019-02-18T08:25:35.545Z,55.90
2019-02-18T08:28:04.799Z,56.20
2019-02-18T08:30:34.813Z,54.00
2019-02-18T08:33:04.392Z,54.00
2019-02-18T08:35:35.631Z,52.30
2019-02-18T08:38:05.028Z,50.50
2019-02-18T08:40:35.191Z,50.60
2019-02-18T08:43:15.106Z,53.50
2019-02-18T08:45:49.425Z,48.60
2019-02-18T08:48:19.310Z,47.40
2019-02-18T08:50:48.786Z,43.50
2019-02-18T08:53:18.469Z,38.20
2019-02-18T08:55:48.602Z,34.70
2019-02-18T08:58:19.894Z,32.00
2019-02-18T09:00:49.815Z,30.30
2019-02-18T09:03:19.053Z,29.40
2019-02-18T09:05:50.741Z,29.30
2019-02-18T09:08:22.817Z,28.40
2019-02-18T09:10:52.166Z,29.60
2019-02-18T09:13:21.443Z,32.90
2019-02-18T09:15:59.826Z,28.60
2019-02-18T09:18:21.808Z,33.10
2019-02-18T09:20:53.778Z,29.50
2019-02-18T09:23:41.301Z,33.90
2019-02-18T09:26:11.838Z,36.80
2019-02-18T09:28:41.927Z,36.10
2019-02-18T09:31:11.495Z,34.90
2019-02-18T09:33:43.514Z,26.80
2019-02-18T09:36:13.189Z,28.70
2019-02-18T09:38:45.875Z,25.10
2019-02-18T09:41:15.636Z,28.70
2019-02-18T09:43:45.208Z,20.20
2019-02-18T09:46:14.553Z,28.50
2019-02-18T09:48:48.125Z,23.70
2019-02-18T09:51:21.475Z,36.40
2019-02-18T09:53:52.963Z,34.40
2019-02-18T09:56:32.452Z,20.10
2019-02-18T09:59:02.528Z,27.10
2019-02-18T10:01:34.052Z,28.70
2019-02-18T10:04:05.089Z,32.40
2019-02-18T10:06:36.590Z,19.50
2019-02-18T10:09:10.595Z,23.60
2019-02-18T10:11:44.801Z,27.60
2019-02-18T10:14:15.919Z,35.30
2019-02-18T10:16:49.085Z,32.20
2019-02-18T10:19:19.338Z,35.80
2019-02-18T10:21:49.802Z,22.40
2019-02-18T10:24:23.486Z,37.20
2019-02-18T10:26:54.962Z,26.40
2019-02-18T10:29:28.071Z,30.60
2019-02-18T10:32:02.655Z,40.60
2019-02-18T10:34:34.878Z,29.60
2019-02-18T10:37:07.923Z,33.10
2019-02-18T10:39:37.915Z,24.80
2019-02-18T10:42:08.058Z,36.00
2019-02-18T10:44:42.002Z,29.70
2019-02-18T10:47:17.487Z,24.80
2019-02-18T10:49:50.747Z,25.80
2019-02-18T10:52:24.145Z,68.80
2019-02-18T10:54:57.283Z,42.90
2019-02-18T10:57:27.453Z,67.60
2019-02-18T10:59:59.787Z,85.90
2019-02-18T11:02:34.103Z,79.50
2019-02-18T11:05:05.286Z,59.70
2019-02-18T11:07:36.463Z,61.30
2019-02-18T11:10:14.464Z,69.70
2019-02-18T11:12:50.949Z,90.10
2019-02-18T11:15:21.190Z,71.50
2019-02-18T11:17:55.425Z,85.20
2019-02-18T11:20:27.630Z,55.90
2019-02-18T11:22:58.538Z,67.30
2019-02-18T11:25:32.579Z,71.80
2019-02-18T11:28:04.915Z,59.20
2019-02-18T11:30:36.201Z,58.20
2019-02-18T11:33:11.918Z,79.00
2019-02-18T11:35:44.330Z,77.10
2019-02-18T11:38:15.049Z,52.90
2019-02-18T11:40:47.332Z,63.00
2019-02-18T11:43:22.759Z,78.30
2019-02-18T11:45:54.292Z,47.50
2019-02-18T11:48:27.093Z,50.50
2019-02-18T11:50:57.212Z,51.30
2019-02-18T11:53:32.281Z,51.60
2019-02-18T11:56:06.849Z,37.90
2019-02-18T11:58:39.752Z,68.40
2019-02-18T12:01:09.683Z,73.20
2019-02-18T12:03:43.833Z,70.20
2019-02-18T12:06:16.079Z,36.30
2019-02-18T12:08:48.826Z,39.30
2019-02-18T12:11:20.901Z,41.10
2019-02-18T12:13:50.995Z,56.30
2019-02-18T12:16:24.191Z,56.10
2019-02-18T12:18:53.560Z,53.70
2019-02-18T12:21:23.086Z,50.10
2019-02-18T12:23:55.044Z,41.80
2019-02-18T12:26:25.970Z,55.60
2019-02-18T12:28:56.770Z,39.60
2019-02-18T12:31:26.395Z,42.90
2019-02-18T12:33:59.071Z,56.30
2019-02-18T12:36:28.732Z,52.00
2019-02-18T12:38:58.740Z,41.20
2019-02-18T12:41:28.058Z,46.40
2019-02-18T12:43:59.749Z,49.90
2019-02-18T12:46:29.978Z,39.60
2019-02-18T12:49:01.827Z,47.40
2019-02-18T12:51:31.879Z,41.20
2019-02-18T12:54:05.063Z,45.20
2019-02-18T12:56:34.311Z,43.30
2019-02-18T12:59:03.807Z,43.50
2019-02-18T13:01:34.002Z,40.90
2019-02-18T13:04:04.232Z,39.20
2019-02-18T13:06:35.847Z,41.50
2019-02-18T13:09:06.694Z,46.70
2019-02-18T13:11:39.894Z,49.80
2019-02-18T13:14:10.474Z,40.90
2019-02-18T13:16:42.352Z,52.90
2019-02-18T13:19:14.024Z,45.20
2019-02-18T13:21:44.053Z,52.50
2019-02-18T13:24:13.810Z,55.50
2019-02-18T13:26:44.130Z,47.10
2019-02-18T13:29:14.173Z,43.50
2019-02-18T13:31:43.333Z,48.90
2019-02-18T13:34:14.009Z,43.70
2019-02-18T13:36:44.682Z,37.90
2019-02-18T13:39:14.688Z,45.20
2019-02-18T13:41:43.742Z,50.00
2019-02-18T13:44:13.721Z,40.60
2019-02-18T13:46:44.865Z,40.60
2019-02-18T13:49:13.935Z,51.60
2019-02-18T13:51:43.334Z,50.20
2019-02-18T13:54:13.791Z,37.50
2019-02-18T13:56:43.721Z,36.60
2019-02-18T13:59:13.197Z,37.10
2019-02-18T14:01:42.675Z,41.40
2019-02-18T14:04:11.883Z,44.80
2019-02-18T14:06:41.664Z,48.30
2019-02-18T14:09:11.171Z,43.90
2019-02-18T14:11:41.136Z,39.70
2019-02-18T14:14:11.555Z,44.60
2019-02-18T14:16:41.258Z,47.30
2019-02-18T14:19:10.701Z,55.30
2019-02-18T14:21:39.811Z,63.40
2019-02-18T14:24:09.047Z,61.10
2019-02-18T14:26:38.469Z,46.20
2019-02-18T14:29:25.918Z,45.40
2019-02-18T14:32:05.949Z,44.20
2019-02-18T14:34:35.458Z,43.60
2019-02-18T14:37:04.826Z,45.90
2019-02-18T14:39:33.940Z,53.60
2019-02-18T14:42:03.066Z,57.70
2019-02-18T14:44:39.124Z,54.40
2019-02-18T14:47:10.742Z,53.00
2019-02-18T14:49:39.832Z,53.00
2019-02-18T14:52:09.442Z,58.50
2019-02-18T14:54:38.877Z,44.90
2019-02-18T14:57:09.478Z,56.90
2019-02-18T14:59:39.300Z,51.70
2019-02-18T15:02:10.406Z,53.50
2019-02-18T15:04:40.166Z,48.40
2019-02-18T15:07:09.820Z,55.10
2019-02-18T15:09:39.749Z,43.30
2019-02-18T15:12:10.359Z,49.50
2019-02-18T15:14:40.068Z,55.50
2019-02-18T15:17:09.161Z,61.20
2019-02-18T15:19:40.837Z,48.70
2019-02-18T15:22:12.898Z,54.00
2019-02-18T15:24:42.899Z,62.50
2019-02-18T15:27:12.879Z,53.10
2019-02-18T15:29:42.566Z,51.40
2019-02-18T15:32:12.429Z,45.60
2019-02-18T15:34:42.455Z,51.90
2019-02-18T15:37:12.335Z,44.90
2019-02-18T15:39:42.366Z,49.20
2019-02-18T15:42:12.001Z,46.60
2019-02-18T15:44:41.681Z,54.40
2019-02-18T15:47:10.863Z,55.30
2019-02-18T15:49:40.603Z,47.20
2019-02-18T15:52:11.409Z,50.30
2019-02-18T15:54:41.810Z,52.40
2019-02-18T15:57:11.829Z,54.60
2019-02-18T15:59:41.575Z,65.10
2019-02-18T16:02:10.925Z,53.50
2019-02-18T16:04:42.110Z,56.20
2019-02-18T16:07:11.782Z,62.40
2019-02-18T16:09:41.367Z,52.50
2019-02-18T16:12:10.381Z,64.10
2019-02-18T16:14:39.570Z,61.80
2019-02-18T16:17:08.776Z,59.90
2019-02-18T16:19:38.475Z,57.90
2019-02-18T16:22:08.104Z,62.40
2019-02-18T16:24:38.091Z,63.00
2019-02-18T16:27:08.241Z,59.60
2019-02-18T16:29:38.058Z,59.30
2019-02-18T16:32:07.505Z,64.90
2019-02-18T16:34:36.943Z,66.20
2019-02-18T16:37:06.675Z,63.50
2019-02-18T16:39:37.578Z,63.80
2019-02-18T16:42:07.200Z,64.40
2019-02-18T16:44:36.352Z,67.40
2019-02-18T16:47:06.121Z,65.80
2019-02-18T16:49:36.632Z,68.50
2019-02-18T16:52:06.683Z,69.80
2019-02-18T16:54:35.818Z,65.40
2019-02-18T16:57:05.166Z,66.40
2019-02-18T16:59:34.371Z,68.30
2019-02-18T17:02:04.490Z,65.50
2019-02-18T17:04:34.097Z,70.10
2019-02-18T17:07:04.457Z,68.90
2019-02-18T17:09:33.976Z,68.60
2019-02-18T17:12:03.159Z,68.70
2019-02-18T17:14:32.262Z,66.80
2019-02-18T17:17:02.802Z,68.60
2019-02-18T17:19:32.053Z,64.40
2019-02-18T17:22:06.420Z,58.40
2019-02-18T17:24:37.042Z,67.80
2019-02-18T17:27:07.337Z,60.90
2019-02-18T17:29:36.410Z,64.90
2019-02-18T17:32:07.673Z,65.60
2019-02-18T17:34:37.689Z,68.80
2019-02-18T17:37:08.678Z,70.20
2019-02-18T17:39:38.243Z,63.80
2019-02-18T17:42:07.431Z,68.90
2019-02-18T17:44:36.923Z,67.10
2019-02-18T17:47:06.650Z,64.50
2019-02-18T17:49:37.587Z,64.60
2019-02-18T17:52:07.396Z,64.80
2019-02-18T17:54:37.366Z,70.30
2019-02-18T17:57:07.078Z,68.30
2019-02-18T17:59:36.819Z,71.20
2019-02-18T18:02:05.990Z,71.90
2019-02-18T18:04:35.942Z,71.00
2019-02-18T18:07:08.500Z,72.60
2019-02-18T18:09:40.145Z,71.80
2019-02-18T18:12:34.118Z,72.20
2019-02-18T18:15:04.268Z,70.10
2019-02-18T18:17:36.152Z,68.80
2019-02-18T18:20:07.019Z,71.20
2019-02-18T18:22:37.415Z,71.80
2019-02-18T18:25:07.199Z,72.50
2019-02-18T18:27:44.816Z,70.80
2019-02-18T18:30:33.865Z,72.10
2019-02-18T18:33:25.081Z,71.60
2019-02-18T18:36:00.179Z,68.60
2019-02-18T18:38:30.168Z,74.20
2019-02-18T18:40:59.315Z,76.10
2019-02-18T18:43:33.752Z,74.80
2019-02-18T18:46:01.473Z,75.80
2019-02-18T18:48:32.197Z,72.40
2019-02-18T18:51:01.774Z,74.70
2019-02-18T18:53:34.291Z,68.10
2019-02-18T18:56:13.486Z,71.50
2019-02-18T18:59:04.283Z,75.00
2019-02-18T19:01:47.973Z,75.10
2019-02-18T19:04:54.355Z,73.20
2019-02-18T19:07:26.667Z,71.30
2019-02-18T19:09:57.295Z,75.50
2019-02-18T19:12:28.564Z,71.00
2019-02-18T19:14:59.688Z,69.20
2019-02-18T19:17:28.953Z,71.60
2019-02-18T19:19:59.078Z,74.80
2019-02-18T19:22:54.455Z,76.70
2019-02-18T19:25:24.007Z,74.10
2019-02-18T19:27:54.800Z,73.80
2019-02-18T19:30:30.500Z,74.30
2019-02-18T19:33:01.323Z,71.70
2019-02-18T19:35:46.988Z,73.70
2019-02-18T19:38:31.017Z,79.70
2019-02-18T19:41:06.115Z,78.80
2019-02-18T19:43:50.050Z,77.00
2019-02-18T19:46:13.409Z,77.90
2019-02-18T19:48:45.779Z,79.50
2019-02-18T19:51:15.337Z,77.10
2019-02-18T19:53:51.870Z,74.50
2019-02-18T19:56:37.836Z,73.10
2019-02-18T19:59:06.450Z,73.30
2019-02-18T20:01:39.826Z,66.00
2019-02-18T20:04:11.260Z,69.10
2019-02-18T20:06:41.873Z,71.20
2019-02-18T20:09:15.835Z,69.40
2019-02-18T20:11:46.522Z,71.30
2019-02-18T20:14:27.687Z,66.60
2019-02-18T20:16:58.031Z,69.40
2019-02-18T20:19:37.157Z,68.40
2019-02-18T20:22:12.450Z,67.90
2019-02-18T20:24:42.127Z,67.90
2019-02-18T20:27:12.351Z,69.20
2019-02-18T20:29:42.034Z,64.90
2019-02-18T20:32:16.579Z,70.20
2019-02-18T20:34:46.692Z,66.60
2019-02-18T20:37:17.039Z,66.20
2019-02-18T20:39:46.945Z,69.30
2019-02-18T20:42:20.185Z,68.70
2019-02-18T20:44:49.478Z,66.50
2019-02-18T20:47:24.380Z,68.90
2019-02-18T20:49:54.717Z,71.00
2019-02-18T20:52:24.204Z,69.60
2019-02-18T20:54:54.335Z,67.30
2019-02-18T20:57:28.482Z,72.90
2019-02-18T20:59:58.068Z,70.40
2019-02-18T21:02:31.554Z,68.90
2019-02-18T21:05:01.286Z,68.50
2019-02-18T21:07:31.642Z,70.00
2019-02-18T21:10:03.136Z,72.70
2019-02-18T21:12:34.814Z,68.40
2019-02-18T21:15:09.180Z,67.70
2019-02-18T21:17:39.449Z,69.70
2019-02-18T21:20:11.308Z,69.40
2019-02-18T21:22:40.966Z,69.00
2019-02-18T21:25:14.676Z,64.80
2019-02-18T21:27:45.399Z,63.20
2019-02-18T21:30:15.527Z,66.90
2019-02-18T21:32:45.787Z,68.70
2019-02-18T21:35:15.698Z,62.00
2019-02-18T21:37:49.826Z,62.20
2019-02-18T21:40:20.819Z,64.60
2019-02-18T21:42:51.467Z,64.00
2019-02-18T21:45:21.136Z,64.30
2019-02-18T21:47:52.070Z,70.30
2019-02-18T21:50:25.333Z,72.70
2019-02-18T21:52:55.225Z,64.70
2019-02-18T21:55:24.767Z,69.00
2019-02-18T21:57:57.025Z,67.80
2019-02-18T22:00:27.040Z,68.20
2019-02-18T22:03:01.299Z,67.60
2019-02-18T22:05:31.611Z,73.60
2019-02-18T22:08:08.622Z,72.00
2019-02-18T22:10:39.509Z,62.10
2019-02-18T22:13:09.320Z,58.30
2019-02-18T22:15:40.911Z,58.60
2019-02-18T22:18:12.628Z,57.80
2019-02-18T22:20:45.001Z,58.50
2019-02-18T22:23:14.392Z,58.10
2019-02-18T22:25:45.671Z,59.90
2019-02-18T22:28:15.111Z,63.20
2019-02-18T22:30:47.533Z,65.10
2019-02-18T22:33:17.405Z,62.70
2019-02-18T22:35:47.134Z,61.60
2019-02-18T22:38:18.998Z,65.20
2019-02-18T22:40:48.228Z,59.60
2019-02-18T22:43:18.292Z,56.70
2019-02-18T22:45:48.961Z,58.70
2019-02-18T22:48:18.337Z,59.50
2019-02-18T22:50:48.861Z,62.20
2019-02-18T22:53:20.119Z,57.20
2019-02-18T22:55:49.329Z,62.60
2019-02-18T22:58:21.846Z,62.60
2019-02-18T23:01:02.145Z,60.40
2019-02-18T23:03:32.105Z,61.70
2019-02-18T23:06:01.506Z,57.50
2019-02-18T23:08:31.160Z,57.60
2019-02-18T23:11:01.486Z,61.20
2019-02-18T23:13:31.029Z,59.40
2019-02-18T23:16:00.703Z,58.20
2019-02-18T23:18:30.146Z,57.20
2019-02-18T23:21:00.737Z,57.90
2019-02-18T23:23:30.642Z,56.50
2019-02-18T23:26:02.086Z,60.30
2019-02-18T23:28:31.240Z,59.60
2019-02-18T23:31:02.547Z,57.50
2019-02-18T23:33:31.791Z,56.40
2019-02-18T23:36:02.097Z,60.90
2019-02-18T23:38:32.042Z,65.90
2019-02-18T23:41:01.238Z,64.20
2019-02-18T23:43:30.352Z,59.90
2019-02-18T23:46:00.276Z,57.20
2019-02-18T23:48:30.980Z,58.80
2019-02-18T23:51:00.677Z,56.20
2019-02-18T23:53:30.094Z,56.90
2019-02-18T23:55:59.801Z,63.80
2019-02-18T23:58:29.197Z,57.20
